Time;durP1;ratioP1;P1;durP2;ratioP2;P2;SDS_P1;SDS_P2;PMS_P1;PMS_P2;Temp;Humidity;BMP_temperature;BMP_pressure;BME280_temperature;BME280_humidity;BME280_pressure;Samples;Min_cycle;Max_cycle;Signal;HPM_P1;HPM_P2
2024/04/14 00:01:08;;;;;;;8.57;7.70;;;14.00;76.50;;;13.30;75.18;98406.78;5458423;26;20989;-80
2024/04/14 00:03:37;;;;;;;8.17;7.47;;;13.90;76.60;;;13.23;75.25;98395.97;5456744;26;20458;-81
2024/04/14 00:06:06;;;;;;;10.30;8.10;;;13.90;76.60;;;13.26;75.47;98394.72;5439017;26;20536;-83
2024/04/14 00:08:35;;;;;;;10.50;7.33;;;13.80;76.90;;;13.16;75.72;98392.53;5461150;26;20448;-78
2024/04/14 00:11:01;;;;;;;8.23;7.50;;;13.70;77.20;;;13.18;75.37;98387.69;5446425;26;20465;-84
2024/04/14 00:13:30;;;;;;;9.07;8.20;;;13.70;77.10;;;13.00;75.74;98354.06;5452513;26;20663;-82
2024/04/14 00:16:00;;;;;;;9.50;7.90;;;13.70;77.20;;;13.13;76.18;98379.41;5439598;26;20517;-78
2024/04/14 00:18:29;;;;;;;8.10;7.50;;;13.70;77.30;;;13.07;76.22;98375.69;5463090;26;20511;-81
2024/04/14 00:20:55;;;;;;;8.13;7.43;;;13.70;77.40;;;13.06;76.44;98370.50;5466875;26;21037;-79
2024/04/14 00:23:28;;;;;;;8.37;7.60;;;13.70;77.70;;;13.09;76.05;98375.47;5452331;26;20551;-82
2024/04/14 00:25:54;;;;;;;9.00;7.93;;;13.70;77.60;;;12.97;76.69;98368.06;5447523;26;20455;-82
2024/04/14 00:28:23;;;;;;;8.20;7.60;;;13.60;77.70;;;12.94;76.50;98349.50;5468571;26;21390;-82
2024/04/14 00:30:49;;;;;;;12.53;8.37;;;13.70;77.80;;;12.96;76.73;98358.25;5433449;26;21211;-83
2024/04/14 00:33:18;;;;;;;16.77;8.80;;;13.60;77.80;;;12.94;76.75;98364.97;5449737;26;20886;-83
2024/04/14 00:35:44;;;;;;;8.20;7.40;;;13.60;78.00;;;12.83;77.25;98353.78;5445641;26;20453;-84
2024/04/14 00:38:14;;;;;;;9.77;8.87;;;13.50;78.20;;;12.56;77.45;98317.94;5434747;26;20472;-79
2024/04/14 00:40:43;;;;;;;9.30;8.50;;;13.40;78.30;;;12.79;77.76;98357.16;5444617;26;20512;-83
2024/04/14 00:43:16;;;;;;;8.50;7.70;;;13.40;78.60;;;12.77;78.04;98360.09;5468269;26;20458;-81
2024/04/14 00:45:43;;;;;;;8.77;7.93;;;13.30;78.90;;;12.73;78.54;98365.13;5460933;26;20448;-77
2024/04/14 00:48:13;;;;;;;10.80;8.50;;;13.30;79.10;;;12.61;78.64;98358.75;5433216;26;20476;-81
2024/04/14 00:50:40;;;;;;;9.10;8.20;;;13.20;79.30;;;12.56;79.06;98353.19;5476235;26;20540;-82
2024/04/14 00:53:09;;;;;;;8.97;8.17;;;13.20;79.60;;;12.52;79.05;98346.53;5461428;26;21408;-80
2024/04/14 00:55:37;;;;;;;10.27;9.23;;;13.20;79.90;;;12.53;79.73;98350.91;5434664;26;20463;-79
2024/04/14 00:58:10;;;;;;;8.20;7.53;;;13.10;80.00;;;12.47;79.63;98355.34;5433139;26;20510;-80
2024/04/14 01:00:37;;;;;;;9.00;8.20;;;13.10;80.00;;;12.43;79.89;98349.50;5471360;26;20848;-79
2024/04/14 01:03:06;;;;;;;10.93;9.10;;;13.10;80.30;;;12.36;80.17;98356.03;5446779;26;21322;-79
2024/04/14 01:05:33;;;;;;;9.57;8.67;;;13.00;80.50;;;12.35;80.67;98351.66;5449423;26;20446;-80
2024/04/14 01:08:02;;;;;;;10.10;8.60;;;13.00;80.70;;;12.34;80.95;98356.22;5455485;26;20461;-79
2024/04/14 01:10:29;;;;;;;9.63;8.60;;;12.90;80.80;;;12.26;81.00;98353.81;5451914;26;20449;-80
2024/04/14 01:12:58;;;;;;;8.80;7.90;;;12.90;81.00;;;12.16;81.43;98349.69;5444761;26;20878;-79
2024/04/14 01:15:27;;;;;;;11.43;8.70;;;12.90;81.30;;;12.07;81.81;98329.34;5449856;26;20444;-82
2024/04/14 01:17:56;;;;;;;8.87;8.03;;;12.80;81.60;;;12.19;81.65;98356.56;5473422;26;20830;-86
2024/04/14 01:20:23;;;;;;;9.40;8.50;;;12.80;81.70;;;12.07;82.47;98348.28;5462917;26;20586;-82
2024/04/14 01:22:55;;;;;;;9.93;8.83;;;12.70;81.90;;;12.00;82.54;98344.75;5444789;26;20927;-81
2024/04/14 01:25:25;;;;;;;9.37;8.40;;;12.70;82.00;;;12.00;82.92;98350.16;5448967;26;20554;-80
2024/04/14 01:27:54;;;;;;;10.90;8.83;;;12.60;82.20;;;11.97;83.47;98347.91;5456630;26;20726;-77
2024/04/14 01:30:21;;;;;;;9.27;8.40;;;12.60;82.50;;;11.18;83.14;98230.63;5436048;26;20456;-80
2024/04/14 01:32:51;;;;;;;9.30;8.50;;;12.60;82.80;;;11.87;83.61;98341.06;5431791;26;21061;-79
2024/04/14 01:35:17;;;;;;;9.20;8.40;;;12.50;82.80;;;11.78;83.89;98336.97;5459602;26;20504;-77
2024/04/14 01:37:46;;;;;;;12.97;9.67;;;12.50;83.10;;;11.41;83.96;98266.31;5461945;26;20523;-76
2024/04/14 01:40:12;;;;;;;9.57;8.67;;;12.50;83.30;;;11.90;84.02;98339.81;5445690;26;20467;-81
2024/04/14 01:42:44;;;;;;;9.33;8.43;;;12.50;83.50;;;11.84;84.26;98341.50;5445788;26;20463;-83
2024/04/14 01:45:11;;;;;;;10.93;9.60;;;12.50;83.50;;;11.88;83.97;98345.41;5448863;26;20582;-80
2024/04/14 01:47:40;;;;;;;9.90;9.00;;;12.50;83.90;;;11.78;84.01;98326.13;5437082;26;20908;-80
2024/04/14 01:50:07;;;;;;;9.87;8.83;;;12.40;83.70;;;11.32;84.67;98269.28;5457844;26;20501;-82
2024/04/14 01:52:37;;;;;;;9.40;8.60;;;12.40;84.00;;;11.82;84.55;98338.19;5450411;26;20444;-84
2024/04/14 01:55:04;;;;;;;9.83;9.03;;;12.40;84.20;;;11.75;85.20;98332.78;5452668;26;21116;-83
2024/04/14 01:57:35;;;;;;;11.47;9.10;;;12.40;84.30;;;11.71;85.48;98328.03;5433610;26;20473;-81
2024/04/14 02:00:08;;;;;;;10.63;9.50;;;12.40;84.50;;;11.66;85.71;98334.06;5454414;26;20774;-83
2024/04/14 02:02:36;;;;;;;11.60;10.40;;;12.30;84.50;;;11.66;86.05;98327.84;5436695;26;20461;-83
2024/04/14 02:05:03;;;;;;;10.67;9.47;;;12.30;84.70;;;11.68;86.00;98325.75;5438118;26;20813;-79
2024/04/14 02:07:32;;;;;;;11.17;9.37;;;12.30;85.10;;;11.64;86.17;98324.53;5455924;26;20505;-82
2024/04/14 02:10:01;;;;;;;10.07;9.13;;;12.30;85.10;;;11.70;85.86;98332.63;5456822;26;20515;-83
2024/04/14 02:12:31;;;;;;;10.20;9.17;;;12.30;85.30;;;11.68;85.62;98333.88;5446095;26;20754;-83
2024/04/14 02:14:57;;;;;;;10.07;9.17;;;12.30;85.50;;;11.73;85.94;98320.50;5431173;26;20466;-79
2024/04/14 02:17:29;;;;;;;12.90;9.87;;;12.30;85.50;;;11.72;86.29;98335.09;5458959;26;20464;-82
2024/04/14 02:19:55;;;;;;;10.60;9.60;;;12.30;85.80;;;11.72;85.79;98335.09;5428506;26;20510;-80
2024/04/14 02:22:24;;;;;;;11.00;10.03;;;12.30;86.00;;;11.69;86.17;98332.81;5453747;26;20440;-74
2024/04/14 02:24:50;;;;;;;10.90;9.90;;;12.20;86.10;;;11.66;86.46;98333.25;5461851;26;20477;-77
2024/04/14 02:27:19;;;;;;;11.70;10.50;;;12.20;86.20;;;11.61;86.92;98331.19;5451925;26;20447;-78
2024/04/14 02:29:46;;;;;;;12.00;9.33;;;12.20;86.20;;;11.47;86.96;98320.41;5465578;26;20579;-76
2024/04/14 02:32:15;;;;;;;10.00;9.10;;;12.20;86.40;;;11.55;86.81;98324.75;5474683;26;20520;-83
2024/04/14 02:34:44;;;;;;;11.47;9.63;;;12.20;86.30;;;10.76;87.38;98205.81;5457800;26;21256;-81
2024/04/14 02:37:13;;;;;;;10.03;9.10;;;12.10;86.90;;;11.50;87.08;98323.72;5433490;26;20520;-81
2024/04/14 02:39:40;;;;;;;11.77;10.10;;;12.10;86.80;;;11.54;87.41;98328.50;5457184;26;20449;-76
2024/04/14 02:42:08;;;;;;;10.20;9.20;;;12.10;87.00;;;11.18;87.63;98283.91;5448487;26;20505;-80
2024/04/14 02:44:35;;;;;;;10.50;9.50;;;12.10;87.20;;;11.36;88.04;98314.84;5455594;26;20450;-81
2024/04/14 02:47:04;;;;;;;11.10;10.10;;;12.00;87.60;;;11.46;87.78;98326.06;5453062;26;20457;-83
2024/04/14 02:49:30;;;;;;;11.73;9.83;;;12.10;87.50;;;11.41;88.39;98325.84;5459810;26;20553;-77
2024/04/14 02:52:02;;;;;;;14.60;10.30;;;12.10;87.40;;;11.38;87.83;98320.88;5450845;26;20456;-81
2024/04/14 02:54:28;;;;;;;11.07;9.73;;;12.10;87.60;;;11.40;88.19;98335.00;5458108;26;20563;-79
2024/04/14 02:56:56;;;;;;;10.43;9.30;;;12.00;87.60;;;11.27;88.03;98303.44;5455855;26;20458;-79
2024/04/14 02:59:23;;;;;;;11.13;10.13;;;12.00;87.90;;;11.32;88.97;98328.81;5462103;26;20456;-83
2024/04/14 03:01:52;;;;;;;11.07;10.07;;;12.00;87.90;;;11.41;88.44;98323.13;5447083;26;20570;-76
2024/04/14 03:04:18;;;;;;;11.10;10.00;;;12.00;87.70;;;11.42;88.50;98327.50;5461902;26;20441;-76
2024/04/14 03:06:47;;;;;;;10.37;9.57;;;12.00;88.00;;;11.26;88.79;98324.22;5467001;26;20513;-76
2024/04/14 03:09:15;;;;;;;10.23;9.40;;;11.90;88.00;;;11.25;89.59;98317.16;5437730;26;20501;-82
2024/04/14 03:11:46;;;;;;;10.70;9.80;;;11.90;88.50;;;11.26;89.54;98318.00;5455857;26;20476;-78
2024/04/14 03:14:13;;;;;;;12.83;10.03;;;11.90;88.60;;;11.31;89.01;98316.31;5458681;26;21051;-80
2024/04/14 03:16:41;;;;;;;11.30;10.00;;;11.90;88.80;;;11.33;88.92;98314.22;5430604;26;20464;-80
2024/04/14 03:19:09;;;;;;;11.23;10.00;;;11.90;88.20;;;11.22;89.67;98320.28;5444726;26;20509;-85
2024/04/14 03:21:38;;;;;;;10.67;9.73;;;11.90;88.60;;;11.19;89.71;98315.31;5475265;26;20459;-84
2024/04/14 03:24:05;;;;;;;11.37;10.30;;;11.80;88.90;;;11.19;89.85;98312.59;5419662;26;20505;-81
2024/04/14 03:26:37;;;;;;;10.70;9.70;;;11.80;89.00;;;10.76;90.47;98255.31;5461514;26;20447;-81
2024/04/14 03:29:04;;;;;;;12.27;11.07;;;11.80;89.40;;;11.23;90.24;98313.03;5430070;26;20892;-82
2024/04/14 03:31:32;;;;;;;12.40;11.17;;;11.80;89.70;;;11.14;89.84;98306.97;5446257;26;20488;-82
2024/04/14 03:33:58;;;;;;;12.23;10.83;;;11.80;89.00;;;11.23;89.85;98313.84;5443190;26;20457;-79
2024/04/14 03:36:28;;;;;;;11.20;10.10;;;11.90;89.00;;;11.22;89.82;98312.19;5470881;26;20452;-79
2024/04/14 03:38:56;;;;;;;12.10;11.00;;;11.90;89.10;;;11.26;89.50;98313.41;5447979;26;21000;-83
2024/04/14 03:41:25;;;;;;;10.70;9.70;;;11.90;88.70;;;11.21;89.73;98315.94;5420699;26;20647;-79
2024/04/14 03:43:57;;;;;;;11.60;10.40;;;11.80;88.90;;;11.20;89.85;98316.97;5430386;26;20550;-80
2024/04/14 03:46:26;;;;;;;11.13;10.03;;;11.80;89.00;;;11.15;89.49;98311.38;5449193;26;20576;-82
2024/04/14 03:48:55;;;;;;;10.77;9.67;;;11.80;89.00;;;10.72;89.85;98240.56;5463031;26;20464;-83
2024/04/14 03:51:21;;;;;;;11.33;10.30;;;11.80;89.00;;;11.21;90.33;98315.94;5455986;26;20448;-76
2024/04/14 03:53:50;;;;;;;11.40;10.20;;;11.80;89.30;;;11.19;90.36;98305.31;5469966;26;20469;-81
2024/04/14 03:56:17;;;;;;;13.40;11.10;;;11.80;89.70;;;10.71;90.50;98238.91;5461828;26;20829;-78
2024/04/14 03:58:49;;;;;;;11.40;10.30;;;11.70;89.80;;;11.09;91.08;98306.81;5452839;26;20487;-78
2024/04/14 04:01:18;;;;;;;11.70;10.60;;;11.70;89.60;;;10.66;91.08;98249.50;5478383;26;21101;-81
2024/04/14 04:03:47;;;;;;;11.10;10.10;;;11.60;90.10;;;11.01;91.43;98303.28;5463494;26;20978;-81
2024/04/14 04:06:13;;;;;;;10.90;9.90;;;11.60;90.50;;;10.88;91.39;98301.44;5466910;26;20535;-82
2024/04/14 04:08:42;;;;;;;11.10;10.00;;;11.50;90.20;;;11.04;91.67;98316.38;5437296;26;20471;-81
2024/04/14 04:11:08;;;;;;;11.00;10.00;;;11.60;90.80;;;11.03;91.15;98309.31;5436783;26;20522;-84
2024/04/14 04:13:37;;;;;;;14.30;9.97;;;11.60;90.40;;;10.97;91.26;98296.63;5424948;26;20464;-81
2024/04/14 04:16:06;;;;;;;10.33;9.43;;;11.60;90.60;;;11.12;91.13;98314.47;5458539;26;20818;-83
2024/04/14 04:18:38;;;;;;;11.07;10.13;;;11.60;90.40;;;11.03;90.37;98300.38;5424307;26;20500;-77
2024/04/14 04:21:05;;;;;;;12.70;10.60;;;11.70;90.30;;;11.12;90.67;98312.63;5451076;26;20462;-83
2024/04/14 04:23:34;;;;;;;10.93;9.93;;;11.70;90.10;;;11.04;90.93;98313.69;5452508;26;21286;-76
2024/04/14 04:26:01;;;;;;;9.87;9.07;;;11.70;90.00;;;11.06;90.73;98310.75;5448978;26;20582;-81
2024/04/14 04:28:37;;;;;;;11.80;9.60;;;11.70;90.10;;;11.08;91.07;98303.28;5472903;26;22702;-83
2024/04/14 04:31:11;;;;;;;10.80;9.80;;;11.70;90.20;;;11.11;90.24;98304.72;5473900;26;20503;-79
2024/04/14 04:33:44;;;;;;;11.67;10.47;;;11.70;90.00;;;10.95;90.71;98285.19;5469577;26;20461;-74
2024/04/14 04:36:13;;;;;;;12.33;9.10;;;11.70;90.10;;;11.21;89.91;98310.50;5482152;26;20444;-76
2024/04/14 04:38:42;;;;;;;13.00;9.90;;;11.80;89.70;;;11.23;89.51;98308.44;5459510;26;20521;-81
2024/04/14 04:41:10;;;;;;;9.90;9.10;;;11.90;89.20;;;11.22;89.15;98298.66;5442621;26;20455;-80
2024/04/14 04:43:40;;;;;;;10.37;9.37;;;11.90;89.00;;;11.36;88.52;98306.72;5473145;26;20521;-76
2024/04/14 04:46:10;;;;;;;11.67;10.57;;;11.90;88.50;;;11.42;88.16;98305.84;5417932;26;20468;-81
2024/04/14 04:48:40;;;;;;;10.90;9.80;;;12.00;88.30;;;11.44;87.64;98309.19;5464157;26;20496;-81
2024/04/14 04:51:09;;;;;;;9.27;8.47;;;12.10;88.00;;;11.56;87.23;98307.47;5466179;26;20513;-78
2024/04/14 04:53:35;;;;;;;10.77;9.90;;;12.10;87.60;;;11.55;87.44;98313.94;5440110;26;20504;-82
2024/04/14 04:56:04;;;;;;;11.13;10.13;;;12.20;87.50;;;11.68;87.05;98315.75;5458438;26;20528;-84
2024/04/14 04:58:30;;;;;;;9.90;9.10;;;12.20;87.50;;;11.94;85.21;98313.94;5474690;26;20509;-83
2024/04/14 05:01:00;;;;;;;9.53;8.70;;;12.30;87.20;;;12.06;84.17;98326.84;5433581;26;20541;-81
2024/04/14 05:03:26;;;;;;;10.10;9.10;;;12.50;86.60;;;12.24;83.88;98323.41;5470993;26;20460;-86
2024/04/14 05:06:03;;;;;;;11.40;8.87;;;12.80;86.00;;;12.43;84.62;98327.84;5474309;26;20507;-79
2024/04/14 05:08:32;;;;;;;10.50;9.40;;;13.00;86.40;;;12.64;83.23;98324.97;5474274;26;20451;-78
2024/04/14 05:11:02;;;;;;;10.43;9.20;;;13.20;85.80;;;13.00;81.48;98326.94;5426537;26;20553;-83
2024/04/14 05:13:28;;;;;;;10.30;8.20;;;13.50;85.10;;;13.57;78.40;98325.94;5443444;26;20458;-83
2024/04/14 05:15:57;;;;;;;9.13;8.30;;;14.10;84.10;;;13.85;76.10;98332.66;5432972;26;20535;-80
2024/04/14 05:18:23;;;;;;;11.03;9.67;;;14.60;82.50;;;13.66;74.39;98277.59;5420565;26;20469;-83
2024/04/14 05:20:53;;;;;;;10.27;9.37;;;14.80;81.40;;;14.24;73.25;98328.81;5424313;26;20508;-79
2024/04/14 05:23:21;;;;;;;8.40;7.70;;;15.00;80.70;;;14.26;72.79;98327.53;5447066;26;20507;-78
2024/04/14 05:25:51;;;;;;;9.47;8.13;;;15.20;79.60;;;14.33;71.97;98316.56;5420251;26;20500;-81
2024/04/14 05:28:18;;;;;;;9.30;8.50;;;15.50;78.80;;;14.01;73.01;98314.91;5437911;26;21001;-86
2024/04/14 05:30:48;;;;;;;9.80;8.90;;;15.20;78.80;;;14.07;73.24;98325.91;5449317;26;20459;-83
2024/04/14 05:33:15;;;;;;;9.27;8.47;;;15.10;79.00;;;14.69;71.38;98328.31;5452433;26;20453;-83
2024/04/14 05:35:53;;;;;;;9.87;8.87;;;15.60;79.00;;;14.64;70.69;98328.19;5450393;26;20517;-84
2024/04/14 05:38:23;;;;;;;9.97;9.03;;;15.80;78.50;;;14.54;70.62;98308.91;5432484;26;20505;-83
2024/04/14 05:40:52;;;;;;;8.70;7.90;;;15.80;77.90;;;14.55;70.96;98324.16;5444586;26;20522;-79
2024/04/14 05:43:18;;;;;;;8.77;7.97;;;15.60;77.80;;;14.45;72.33;98330.97;5434646;26;20491;-80
2024/04/14 05:45:47;;;;;;;9.20;8.20;;;15.50;78.20;;;14.48;71.99;98331.56;5469545;26;20566;-79
2024/04/14 05:48:14;;;;;;;8.80;7.67;;;15.30;78.50;;;14.30;72.97;98328.72;5435550;26;20870;-76
2024/04/14 05:50:43;;;;;;;9.37;8.57;;;15.10;78.60;;;14.38;72.43;98330.28;5447299;26;20790;-83
2024/04/14 05:53:11;;;;;;;9.30;8.50;;;15.10;79.00;;;14.42;72.22;98336.88;5452451;26;20507;-80
2024/04/14 05:55:43;;;;;;;11.93;8.90;;;15.10;78.90;;;14.70;71.04;98335.41;5459311;26;20450;-81
2024/04/14 05:58:09;;;;;;;8.00;6.70;;;15.30;78.70;;;14.94;71.30;98335.47;5430478;26;20769;-80
2024/04/14 06:00:38;;;;;;;9.67;7.60;;;15.40;79.00;;;15.13;69.63;98324.47;5435493;26;20530;-82
2024/04/14 06:03:05;;;;;;;8.20;7.40;;;15.60;78.40;;;15.19;69.40;98320.78;5456205;26;20463;-82
2024/04/14 06:05:35;;;;;;;8.90;8.07;;;15.70;78.30;;;15.09;67.97;98263.41;5449737;26;20845;-83
2024/04/14 06:08:02;;;;;;;7.73;7.03;;;15.90;77.80;;;15.49;68.19;98332.59;5451174;26;20462;-82
2024/04/14 06:10:33;;;;;;;7.17;6.57;;;16.00;77.70;;;15.76;67.12;98341.03;5450058;26;20521;-80
2024/04/14 06:13:02;;;;;;;8.27;7.43;;;16.20;77.40;;;15.47;66.43;98278.34;5480397;26;20460;-80
2024/04/14 06:15:31;;;;;;;5.63;5.20;;;16.40;76.80;;;16.05;65.73;98341.09;5460568;26;20460;-79
2024/04/14 06:17:57;;;;;;;5.03;4.63;;;16.50;76.50;;;16.31;63.92;98344.28;5446925;26;20519;-85
2024/04/14 06:20:26;;;;;;;5.53;4.93;;;16.70;75.60;;;16.39;62.70;98341.16;5467006;26;20451;-80
2024/04/14 06:22:52;;;;;;;5.90;4.60;;;16.90;75.10;;;16.62;62.44;98347.56;5474088;26;20445;-78
2024/04/14 06:25:21;;;;;;;6.40;4.60;;;17.10;74.60;;;16.60;61.92;98338.75;5437692;26;20470;-75
2024/04/14 06:27:47;;;;;;;7.70;4.20;;;17.20;74.10;;;16.80;61.47;98341.00;5466734;26;21047;-76
2024/04/14 06:30:19;;;;;;;5.20;4.80;;;17.30;73.70;;;16.83;61.55;98345.16;5460323;26;20503;-80
2024/04/14 06:32:45;;;;;;;6.03;4.43;;;17.40;73.50;;;16.83;61.39;98336.97;5424120;26;20550;-73
2024/04/14 06:35:14;;;;;;;4.73;4.33;;;17.40;73.30;;;16.92;61.29;98331.91;5425554;26;20476;-79
2024/04/14 06:37:40;;;;;;;5.00;4.60;;;17.40;73.40;;;17.17;60.33;98339.69;5438250;26;20464;-78
2024/04/14 06:40:13;;;;;;;4.70;4.30;;;17.60;73.10;;;17.41;59.60;98339.47;5446013;26;20460;-77
2024/04/14 06:42:40;;;;;;;4.50;4.10;;;17.80;72.80;;;17.27;60.00;98344.47;5451352;26;21038;-78
2024/04/14 06:45:11;;;;;;;4.40;4.00;;;17.90;72.20;;;17.54;59.68;98355.50;5449997;26;20543;-81
2024/04/14 06:47:40;;;;;;;5.57;4.40;;;18.10;72.10;;;17.65;58.52;98345.53;5446239;26;20501;-77
2024/04/14 06:50:10;;;;;;;4.67;4.20;;;18.20;71.80;;;17.82;58.22;98348.19;5449324;26;20457;-79
2024/04/14 06:52:37;;;;;;;6.10;5.60;;;18.30;71.60;;;18.22;57.80;98350.84;5457419;26;20506;-80
2024/04/14 06:55:06;;;;;;;6.50;5.53;;;18.60;71.50;;;17.78;57.85;98297.03;5437155;26;20521;-76
2024/04/14 06:57:32;;;;;;;4.73;4.33;;;18.70;70.80;;;18.27;56.92;98351.72;5452962;26;20453;-80
2024/04/14 07:00:02;;;;;;;4.50;4.10;;;18.80;70.60;;;18.50;56.35;98348.94;5431439;26;20542;-75
2024/04/14 07:02:28;;;;;;;3.63;3.33;;;18.90;70.30;;;18.43;56.62;98353.78;5458300;26;20993;-77
2024/04/14 07:05:02;;;;;;;3.97;3.00;;;18.90;70.20;;;18.67;55.90;98352.34;5442304;26;20453;-80
2024/04/14 07:07:29;;;;;;;3.60;3.30;;;19.10;69.80;;;18.72;56.37;98364.44;5444212;26;20460;-80
2024/04/14 07:09:58;;;;;;;4.00;3.27;;;19.20;69.80;;;18.65;55.47;98357.28;5448140;26;20501;-80
2024/04/14 07:12:25;;;;;;;3.57;3.27;;;19.20;69.10;;;18.68;55.94;98359.47;5420544;26;20457;-76
2024/04/14 07:14:54;;;;;;;6.17;4.07;;;19.20;69.10;;;18.81;55.99;98340.97;5440903;26;20992;-76
2024/04/14 07:17:21;;;;;;;4.90;3.30;;;19.30;69.30;;;18.87;55.73;98348.13;5443444;26;20629;-76
2024/04/14 07:19:50;;;;;;;3.33;3.00;;;19.40;69.20;;;18.78;55.45;98311.41;5444959;26;20464;-76
2024/04/14 07:22:19;;;;;;;5.93;3.10;;;19.50;69.00;;;19.31;55.14;98358.06;5428463;26;20469;-76
2024/04/14 07:24:49;;;;;;;5.00;3.00;;;19.70;68.90;;;19.50;54.73;98349.41;5419024;26;20475;-77
2024/04/14 07:27:15;;;;;;;4.60;3.70;;;19.90;68.70;;;19.74;53.95;98355.25;5416658;26;21024;-77
2024/04/14 07:29:45;;;;;;;3.43;2.50;;;20.10;68.60;;;19.89;53.27;98368.22;5447089;26;20462;-71
2024/04/14 07:32:11;;;;;;;3.37;3.07;;;20.30;68.20;;;19.79;53.99;98362.69;5459049;26;20460;-76
2024/04/14 07:34:40;;;;;;;2.90;2.60;;;20.30;67.90;;;19.60;54.49;98356.84;5446319;26;20437;-76
2024/04/14 07:37:07;;;;;;;3.30;2.87;;;20.20;68.00;;;19.48;54.33;98318.69;5477590;26;20452;-76
2024/04/14 07:39:38;;;;;;;3.00;2.80;;;20.10;68.20;;;19.53;55.01;98352.44;5417162;26;20465;-74
2024/04/14 07:42:08;;;;;;;3.30;3.07;;;20.10;68.20;;;19.41;55.49;98346.34;5458786;26;20583;-78
2024/04/14 07:44:38;;;;;;;4.13;3.00;;;19.90;68.30;;;19.36;55.81;98360.00;5435737;26;20528;-74
2024/04/14 07:47:05;;;;;;;3.43;3.13;;;19.90;68.60;;;19.25;56.33;98354.47;5450914;26;21048;-75
2024/04/14 07:49:36;;;;;;;4.13;2.70;;;19.80;68.70;;;19.30;56.59;98363.78;5448709;26;20455;-75
2024/04/14 07:52:02;;;;;;;8.00;5.27;;;19.80;69.00;;;18.95;57.05;98300.28;5424822;26;21075;-76
2024/04/14 07:54:31;;;;;;;3.67;2.87;;;19.90;69.40;;;19.37;56.51;98361.66;5462172;26;20566;-77
2024/04/14 07:57:02;;;;;;;3.10;2.60;;;19.90;68.80;;;18.92;56.55;98307.13;5426032;26;20772;-77
2024/04/14 07:59:31;;;;;;;4.83;3.03;;;19.90;69.00;;;19.30;56.24;98348.19;5447666;26;20473;-77
2024/04/14 08:01:58;;;;;;;3.43;3.10;;;19.90;69.10;;;19.79;55.80;98363.53;5458745;26;20459;-77
2024/04/14 08:04:27;;;;;;;4.27;2.97;;;20.10;69.10;;;20.06;55.24;98378.19;5430971;26;21058;-75
2024/04/14 08:06:53;;;;;;;3.07;2.87;;;20.40;69.00;;;19.75;55.26;98334.97;5411518;26;20469;-73
2024/04/14 08:09:23;;;;;;;3.50;2.87;;;20.40;68.60;;;19.93;55.35;98384.97;5425433;26;20465;-74
2024/04/14 08:11:49;;;;;;;4.30;3.10;;;20.50;68.50;;;19.86;55.83;98373.41;5444015;26;20449;-87
2024/04/14 08:14:20;;;;;;;4.00;3.60;;;20.30;68.80;;;19.85;56.25;98371.75;5409039;26;21184;-69
2024/04/14 08:16:47;;;;;;;3.33;3.00;;;20.30;69.10;;;19.98;56.05;98368.56;5456434;26;20560;-72
2024/04/14 08:19:16;;;;;;;3.70;3.13;;;20.40;69.30;;;20.29;55.43;98376.03;5467155;26;20465;-72
2024/04/14 08:21:43;;;;;;;3.90;3.33;;;20.70;69.30;;;20.35;55.46;98375.78;5454705;26;20526;-71
2024/04/14 08:24:12;;;;;;;3.40;3.10;;;20.70;69.00;;;20.11;56.00;98372.69;5452122;26;20445;-71
2024/04/14 08:26:38;;;;;;;3.23;2.93;;;20.60;69.10;;;20.02;56.29;98377.88;5445174;26;20516;-73
2024/04/14 08:29:07;;;;;;;4.33;3.23;;;20.50;69.20;;;19.92;57.34;98380.56;5431503;26;20574;-74
2024/04/14 08:31:37;;;;;;;3.60;3.30;;;20.40;69.60;;;20.28;56.68;98374.38;5434946;26;20576;-74
2024/04/14 08:34:06;;;;;;;3.97;3.43;;;20.60;69.90;;;20.58;56.07;98378.28;5444381;26;21283;-72
2024/04/14 08:36:32;;;;;;;5.40;3.00;;;20.90;69.80;;;20.48;55.63;98379.94;5443850;26;21086;-72
2024/04/14 08:39:01;;;;;;;3.50;3.20;;;21.00;69.00;;;20.58;55.70;98379.13;5431345;26;20543;-73
2024/04/14 08:41:30;;;;;;;5.00;3.37;;;20.90;69.30;;;20.46;55.65;98375.81;5445982;26;20457;-74
2024/04/14 08:44:01;;;;;;;4.20;3.33;;;20.90;69.30;;;20.52;55.23;98369.22;5443878;26;20470;-73
2024/04/14 08:46:30;;;;;;;3.30;3.00;;;20.90;68.80;;;20.58;55.30;98378.28;5438005;26;20460;-72
2024/04/14 08:49:02;;;;;;;5.30;2.80;;;21.00;69.00;;;20.93;53.57;98374.78;5430009;26;20457;-73
2024/04/14 08:51:30;;;;;;;3.03;2.50;;;21.20;68.20;;;21.10;52.17;98370.91;5449529;26;20851;-73
2024/04/14 08:53:59;;;;;;;2.80;2.50;;;21.50;67.10;;;21.13;51.30;98364.84;5448425;26;20499;-72
2024/04/14 08:56:27;;;;;;;3.50;2.87;;;21.60;66.60;;;21.03;51.37;98375.88;5445885;26;20969;-72
2024/04/14 08:59:04;;;;;;;3.07;2.50;;;21.60;66.10;;;21.03;51.04;98373.13;5469126;26;20553;-71
2024/04/14 09:01:30;;;;;;;3.93;2.57;;;21.50;65.70;;;21.15;50.34;98376.38;5448924;26;20521;-71
2024/04/14 09:04:04;;;;;;;3.30;2.30;;;21.60;65.30;;;21.23;48.02;98373.09;5461755;26;20512;-70
2024/04/14 09:06:32;;;;;;;2.30;2.10;;;21.60;63.10;;;21.02;47.32;98349.50;5465033;26;20510;-72
2024/04/14 09:09:02;;;;;;;2.70;2.00;;;21.60;61.90;;;21.06;47.20;98383.56;5458696;26;20570;-72
2024/04/14 09:11:28;;;;;;;3.13;2.50;;;21.60;61.80;;;20.85;47.84;98383.56;5445887;26;20604;-72
2024/04/14 09:13:58;;;;;;;2.30;2.10;;;21.40;61.90;;;20.88;48.28;98374.78;5474644;26;20583;-73
2024/04/14 09:16:27;;;;;;;2.63;2.43;;;21.40;62.50;;;21.18;48.54;98367.63;5467751;26;20436;-74
2024/04/14 09:19:02;;;;;;;2.90;2.30;;;21.50;62.60;;;21.21;48.66;98372.56;5440756;26;20520;-71
2024/04/14 09:21:29;;;;;;;4.83;2.73;;;21.70;62.70;;;21.21;47.76;98375.28;5454458;26;21007;-75
2024/04/14 09:23:58;;;;;;;4.33;2.30;;;21.70;62.20;;;21.23;48.08;98373.09;5444053;26;20469;-73
2024/04/14 09:26:26;;;;;;;4.23;2.30;;;21.70;62.30;;;21.11;48.30;98372.56;5433376;26;20457;-74
2024/04/14 09:29:04;;;;;;;3.00;2.20;;;21.60;62.20;;;21.12;48.65;98379.69;5459545;26;20570;-74
2024/04/14 09:31:32;;;;;;;3.43;2.07;;;21.50;62.00;;;21.04;48.69;98364.59;5457220;26;20449;-72
2024/04/14 09:34:06;;;;;;;3.67;2.50;;;21.50;62.00;;;21.30;47.82;98371.97;5449318;26;20522;-72
2024/04/14 09:36:34;;;;;;;2.57;2.37;;;21.70;62.00;;;21.40;47.51;98366.47;5444217;26;20515;-74
2024/04/14 09:39:06;;;;;;;2.60;2.30;;;21.80;61.60;;;21.32;47.21;98351.38;5449594;26;20505;-74
2024/04/14 09:41:33;;;;;;;3.03;2.20;;;21.80;61.20;;;21.67;46.99;98348.84;5440856;26;20475;-72
2024/04/14 09:44:05;;;;;;;3.07;2.37;;;22.00;61.60;;;21.97;46.64;98358.06;5452639;26;20527;-73
2024/04/14 09:46:32;;;;;;;2.20;2.00;;;22.30;61.60;;;22.15;45.86;98353.84;5460931;26;20440;-73
2024/04/14 09:49:04;;;;;;;1.90;1.80;;;22.50;60.90;;;22.33;45.76;98360.59;5466431;26;20574;-72
2024/04/14 09:51:31;;;;;;;3.13;2.40;;;22.60;60.90;;;21.85;45.75;98360.31;5466362;26;20496;-74
2024/04/14 09:54:03;;;;;;;3.73;2.40;;;22.50;60.10;;;22.05;46.02;98354.69;5428502;26;20883;-75
2024/04/14 09:56:30;;;;;;;2.27;2.07;;;22.40;60.40;;;22.32;45.40;98350.69;5416971;26;20536;-76
2024/04/14 09:58:59;;;;;;;4.00;2.60;;;22.70;60.20;;;22.69;44.09;98345.00;5466414;26;20455;-75
2024/04/14 10:01:32;;;;;;;5.17;3.00;;;23.00;59.90;;;22.88;44.19;98351.44;5447876;26;21007;-73
2024/04/14 10:04:05;;;;;;;3.70;3.03;;;23.30;59.70;;;23.36;43.06;98340.81;5422956;26;20560;-75
2024/04/14 10:06:34;;;;;;;2.30;2.10;;;23.60;59.40;;;22.91;42.84;98306.78;5459297;26;20450;-75
2024/04/14 10:09:04;;;;;;;2.53;2.07;;;23.60;58.60;;;22.92;42.70;98346.97;5458827;26;20476;-74
2024/04/14 10:11:34;;;;;;;2.50;2.30;;;23.40;58.30;;;22.68;43.19;98338.66;5452486;26;20462;-75
2024/04/14 10:14:01;;;;;;;2.67;2.20;;;23.20;58.20;;;22.59;43.55;98354.97;5449511;26;21294;-76
2024/04/14 10:16:30;;;;;;;2.03;1.93;;;23.10;58.20;;;22.26;44.32;98334.50;5418586;26;20560;-75
2024/04/14 10:19:05;;;;;;;2.30;2.10;;;22.80;58.30;;;22.14;44.66;98337.63;5450343;26;20459;-73
2024/04/14 10:21:35;;;;;;;1.93;1.73;;;22.70;58.30;;;22.50;44.21;98334.66;5451774;26;20526;-76